sensor_id;sensor_type;location;lat;lon;timestamp;P1;durP1;ratioP1;P2;durP2;ratioP2
9496;SDS011;4786;51.270;4.456;2022-10-18T00:01:07;12.63;;;7.67;;
9496;SDS011;4786;51.270;4.456;2022-10-18T00:03:33;8.07;;;7.23;;
9496;SDS011;4786;51.270;4.456;2022-10-18T00:06:00;11.63;;;7.93;;
9496;SDS011;4786;51.270;4.456;2022-10-18T00:08:26;8.63;;;7.77;;
9496;SDS011;4786;51.270;4.456;2022-10-18T00:10:52;7.67;;;6.80;;
9496;SDS011;4786;51.270;4.456;2022-10-18T00:13:18;8.23;;;7.47;;
9496;SDS011;4786;51.270;4.456;2022-10-18T00:15:51;7.93;;;7.10;;
9496;SDS011;4786;51.270;4.456;2022-10-18T00:18:23;7.47;;;6.77;;
9496;SDS011;4786;51.270;4.456;2022-10-18T00:21:22;8.90;;;6.50;;
9496;SDS011;4786;51.270;4.456;2022-10-18T00:23:44;9.70;;;7.77;;
9496;SDS011;4786;51.270;4.456;2022-10-18T00:26:12;11.20;;;7.50;;
9496;SDS011;4786;51.270;4.456;2022-10-18T00:28:40;7.97;;;7.07;;
9496;SDS011;4786;51.270;4.456;2022-10-18T00:33:37;8.20;;;7.40;;
9496;SDS011;4786;51.270;4.456;2022-10-18T00:36:03;7.57;;;6.87;;
9496;SDS011;4786;51.270;4.456;2022-10-18T00:38:30;9.77;;;7.27;;
9496;SDS011;4786;51.270;4.456;2022-10-18T00:40:55;13.13;;;7.00;;
9496;SDS011;4786;51.270;4.456;2022-10-18T00:43:21;10.47;;;6.80;;
9496;SDS011;4786;51.270;4.456;2022-10-18T00:45:47;8.63;;;6.80;;
9496;SDS011;4786;51.270;4.456;2022-10-18T00:48:13;10.60;;;6.87;;
9496;SDS011;4786;51.270;4.456;2022-10-18T00:50:41;9.83;;;7.07;;
9496;SDS011;4786;51.270;4.456;2022-10-18T00:53:09;9.63;;;6.90;;
9496;SDS011;4786;51.270;4.456;2022-10-18T00:55:39;9.77;;;7.47;;
9496;SDS011;4786;51.270;4.456;2022-10-18T00:58:05;13.20;;;6.97;;
9496;SDS011;4786;51.270;4.456;2022-10-18T01:00:32;8.90;;;6.33;;
9496;SDS011;4786;51.270;4.456;2022-10-18T01:03:02;8.07;;;6.77;;
9496;SDS011;4786;51.270;4.456;2022-10-18T01:05:29;10.13;;;6.80;;
9496;SDS011;4786;51.270;4.456;2022-10-18T01:08:17;11.93;;;7.10;;
9496;SDS011;4786;51.270;4.456;2022-10-18T01:11:08;10.60;;;6.73;;
9496;SDS011;4786;51.270;4.456;2022-10-18T01:16:47;8.53;;;7.37;;
9496;SDS011;4786;51.270;4.456;2022-10-18T01:25:01;8.87;;;6.90;;
9496;SDS011;4786;51.270;4.456;2022-10-18T01:30:37;7.30;;;6.57;;
9496;SDS011;4786;51.270;4.456;2022-10-18T01:36:03;10.27;;;6.80;;
9496;SDS011;4786;51.270;4.456;2022-10-18T01:38:34;12.07;;;6.53;;
9496;SDS011;4786;51.270;4.456;2022-10-18T01:41:02;10.90;;;6.77;;
9496;SDS011;4786;51.270;4.456;2022-10-18T01:43:31;9.43;;;7.00;;
9496;SDS011;4786;51.270;4.456;2022-10-18T01:45:59;6.70;;;6.03;;
9496;SDS011;4786;51.270;4.456;2022-10-18T01:48:25;7.90;;;7.03;;
9496;SDS011;4786;51.270;4.456;2022-10-18T01:50:52;7.30;;;6.70;;
9496;SDS011;4786;51.270;4.456;2022-10-18T01:53:26;12.80;;;7.53;;
9496;SDS011;4786;51.270;4.456;2022-10-18T01:58:41;8.70;;;6.67;;
9496;SDS011;4786;51.270;4.456;2022-10-18T02:04:26;8.27;;;6.07;;
9496;SDS011;4786;51.270;4.456;2022-10-18T02:12:47;7.87;;;6.47;;
9496;SDS011;4786;51.270;4.456;2022-10-18T02:15:16;8.47;;;6.50;;
9496;SDS011;4786;51.270;4.456;2022-10-18T02:17:44;10.90;;;6.50;;
9496;SDS011;4786;51.270;4.456;2022-10-18T02:20:11;9.27;;;6.57;;
9496;SDS011;4786;51.270;4.456;2022-10-18T02:22:39;7.17;;;6.50;;
9496;SDS011;4786;51.270;4.456;2022-10-18T02:25:10;9.73;;;6.67;;
9496;SDS011;4786;51.270;4.456;2022-10-18T02:27:41;11.13;;;6.80;;
9496;SDS011;4786;51.270;4.456;2022-10-18T02:30:07;7.47;;;6.77;;
9496;SDS011;4786;51.270;4.456;2022-10-18T02:32:38;7.60;;;6.80;;
9496;SDS011;4786;51.270;4.456;2022-10-18T02:37:49;10.87;;;7.30;;
9496;SDS011;4786;51.270;4.456;2022-10-18T02:40:17;11.10;;;7.47;;
9496;SDS011;4786;51.270;4.456;2022-10-18T02:42:47;8.50;;;6.60;;
9496;SDS011;4786;51.270;4.456;2022-10-18T02:45:15;8.13;;;6.43;;
9496;SDS011;4786;51.270;4.456;2022-10-18T02:47:41;7.97;;;6.80;;
9496;SDS011;4786;51.270;4.456;2022-10-18T02:50:08;7.87;;;6.93;;
9496;SDS011;4786;51.270;4.456;2022-10-18T02:52:35;11.17;;;7.43;;
9496;SDS011;4786;51.270;4.456;2022-10-18T02:55:01;8.73;;;7.40;;
9496;SDS011;4786;51.270;4.456;2022-10-18T02:57:28;8.13;;;7.07;;
9496;SDS011;4786;51.270;4.456;2022-10-18T02:59:54;8.43;;;6.80;;
9496;SDS011;4786;51.270;4.456;2022-10-18T03:02:21;7.83;;;6.77;;
9496;SDS011;4786;51.270;4.456;2022-10-18T03:04:47;9.77;;;7.20;;
9496;SDS011;4786;51.270;4.456;2022-10-18T03:07:13;8.73;;;7.30;;
9496;SDS011;4786;51.270;4.456;2022-10-18T03:09:38;8.13;;;7.33;;
9496;SDS011;4786;51.270;4.456;2022-10-18T03:12:04;11.70;;;7.67;;
9496;SDS011;4786;51.270;4.456;2022-10-18T03:14:30;10.97;;;8.07;;
9496;SDS011;4786;51.270;4.456;2022-10-18T03:16:55;12.07;;;8.23;;
9496;SDS011;4786;51.270;4.456;2022-10-18T03:19:21;11.50;;;7.93;;
9496;SDS011;4786;51.270;4.456;2022-10-18T03:21:47;9.50;;;8.50;;
9496;SDS011;4786;51.270;4.456;2022-10-18T03:24:13;8.70;;;7.80;;
9496;SDS011;4786;51.270;4.456;2022-10-18T03:26:39;9.30;;;8.40;;
9496;SDS011;4786;51.270;4.456;2022-10-18T03:29:05;11.37;;;8.57;;
9496;SDS011;4786;51.270;4.456;2022-10-18T03:31:30;10.53;;;7.90;;
9496;SDS011;4786;51.270;4.456;2022-10-18T03:33:56;9.97;;;8.10;;
9496;SDS011;4786;51.270;4.456;2022-10-18T03:36:22;12.17;;;7.83;;
9496;SDS011;4786;51.270;4.456;2022-10-18T03:38:48;8.27;;;7.57;;
9496;SDS011;4786;51.270;4.456;2022-10-18T03:41:15;11.20;;;7.70;;
9496;SDS011;4786;51.270;4.456;2022-10-18T03:43:41;9.97;;;7.70;;
9496;SDS011;4786;51.270;4.456;2022-10-18T03:46:06;8.13;;;7.40;;
9496;SDS011;4786;51.270;4.456;2022-10-18T03:48:32;10.33;;;7.60;;
9496;SDS011;4786;51.270;4.456;2022-10-18T03:50:58;9.00;;;7.43;;
9496;SDS011;4786;51.270;4.456;2022-10-18T03:53:24;7.30;;;6.70;;
9496;SDS011;4786;51.270;4.456;2022-10-18T03:55:50;10.47;;;7.23;;
9496;SDS011;4786;51.270;4.456;2022-10-18T03:58:17;8.33;;;7.53;;
9496;SDS011;4786;51.270;4.456;2022-10-18T04:00:43;7.67;;;6.93;;
9496;SDS011;4786;51.270;4.456;2022-10-18T04:03:09;7.63;;;6.63;;
9496;SDS011;4786;51.270;4.456;2022-10-18T04:05:35;6.83;;;6.00;;
9496;SDS011;4786;51.270;4.456;2022-10-18T04:08:01;8.23;;;6.40;;
9496;SDS011;4786;51.270;4.456;2022-10-18T04:10:27;7.53;;;6.73;;
9496;SDS011;4786;51.270;4.456;2022-10-18T04:12:53;10.10;;;8.80;;
9496;SDS011;4786;51.270;4.456;2022-10-18T04:15:19;8.77;;;7.57;;
9496;SDS011;4786;51.270;4.456;2022-10-18T04:17:45;10.87;;;7.57;;
9496;SDS011;4786;51.270;4.456;2022-10-18T04:20:12;8.90;;;7.60;;
9496;SDS011;4786;51.270;4.456;2022-10-18T04:22:38;7.93;;;7.20;;
9496;SDS011;4786;51.270;4.456;2022-10-18T04:25:04;14.97;;;7.90;;
9496;SDS011;4786;51.270;4.456;2022-10-18T04:27:30;8.23;;;7.43;;
9496;SDS011;4786;51.270;4.456;2022-10-18T04:29:56;8.33;;;7.10;;
9496;SDS011;4786;51.270;4.456;2022-10-18T04:32:22;8.40;;;6.50;;
9496;SDS011;4786;51.270;4.456;2022-10-18T04:34:48;8.07;;;7.27;;
9496;SDS011;4786;51.270;4.456;2022-10-18T04:37:14;9.10;;;6.53;;
9496;SDS011;4786;51.270;4.456;2022-10-18T04:39:40;7.77;;;6.50;;
9496;SDS011;4786;51.270;4.456;2022-10-18T04:42:10;7.87;;;6.40;;
9496;SDS011;4786;51.270;4.456;2022-10-18T04:44:36;11.70;;;6.73;;
9496;SDS011;4786;51.270;4.456;2022-10-18T04:47:01;8.93;;;6.37;;
9496;SDS011;4786;51.270;4.456;2022-10-18T04:49:27;9.90;;;6.50;;
9496;SDS011;4786;51.270;4.456;2022-10-18T04:51:53;9.90;;;5.60;;
9496;SDS011;4786;51.270;4.456;2022-10-18T04:54:19;6.80;;;6.10;;
9496;SDS011;4786;51.270;4.456;2022-10-18T04:56:45;11.33;;;6.20;;
9496;SDS011;4786;51.270;4.456;2022-10-18T04:59:11;9.03;;;6.30;;
9496;SDS011;4786;51.270;4.456;2022-10-18T05:01:37;6.60;;;6.00;;
9496;SDS011;4786;51.270;4.456;2022-10-18T05:04:03;5.80;;;5.20;;
9496;SDS011;4786;51.270;4.456;2022-10-18T05:06:29;7.47;;;5.97;;
9496;SDS011;4786;51.270;4.456;2022-10-18T05:08:55;6.87;;;6.17;;
9496;SDS011;4786;51.270;4.456;2022-10-18T05:11:20;7.83;;;5.90;;
9496;SDS011;4786;51.270;4.456;2022-10-18T05:13:46;8.77;;;6.10;;
9496;SDS011;4786;51.270;4.456;2022-10-18T05:16:12;13.90;;;5.40;;
9496;SDS011;4786;51.270;4.456;2022-10-18T05:18:38;7.07;;;5.23;;
9496;SDS011;4786;51.270;4.456;2022-10-18T05:21:04;6.60;;;5.30;;
9496;SDS011;4786;51.270;4.456;2022-10-18T05:23:30;6.10;;;5.50;;
9496;SDS011;4786;51.270;4.456;2022-10-18T05:25:59;7.83;;;7.03;;
9496;SDS011;4786;51.270;4.456;2022-10-18T05:28:27;8.43;;;6.60;;
9496;SDS011;4786;51.270;4.456;2022-10-18T05:30:53;6.67;;;5.97;;
9496;SDS011;4786;51.270;4.456;2022-10-18T05:33:19;7.30;;;6.60;;
9496;SDS011;4786;51.270;4.456;2022-10-18T05:35:44;7.40;;;6.37;;
9496;SDS011;4786;51.270;4.456;2022-10-18T05:38:11;8.67;;;6.60;;
9496;SDS011;4786;51.270;4.456;2022-10-18T05:40:37;9.00;;;6.83;;
9496;SDS011;4786;51.270;4.456;2022-10-18T05:43:03;7.63;;;6.60;;
9496;SDS011;4786;51.270;4.456;2022-10-18T05:45:29;7.20;;;6.50;;
9496;SDS011;4786;51.270;4.456;2022-10-18T05:47:54;11.73;;;7.60;;
9496;SDS011;4786;51.270;4.456;2022-10-18T05:50:20;8.33;;;7.07;;
9496;SDS011;4786;51.270;4.456;2022-10-18T05:52:46;7.57;;;6.87;;
9496;SDS011;4786;51.270;4.456;2022-10-18T05:55:12;8.93;;;6.50;;
9496;SDS011;4786;51.270;4.456;2022-10-18T05:57:38;6.63;;;5.97;;
9496;SDS011;4786;51.270;4.456;2022-10-18T06:00:04;8.57;;;5.40;;
9496;SDS011;4786;51.270;4.456;2022-10-18T06:02:30;7.90;;;6.00;;
9496;SDS011;4786;51.270;4.456;2022-10-18T06:04:56;6.00;;;5.20;;
9496;SDS011;4786;51.270;4.456;2022-10-18T06:07:22;12.10;;;6.17;;
9496;SDS011;4786;51.270;4.456;2022-10-18T06:09:48;7.00;;;6.30;;
9496;SDS011;4786;51.270;4.456;2022-10-18T06:12:14;8.17;;;5.87;;
9496;SDS011;4786;51.270;4.456;2022-10-18T06:14:41;9.70;;;6.30;;
9496;SDS011;4786;51.270;4.456;2022-10-18T06:17:07;10.80;;;6.60;;
9496;SDS011;4786;51.270;4.456;2022-10-18T06:19:34;9.90;;;7.57;;
9496;SDS011;4786;51.270;4.456;2022-10-18T06:22:00;10.63;;;7.07;;
9496;SDS011;4786;51.270;4.456;2022-10-18T06:24:25;9.03;;;7.17;;
9496;SDS011;4786;51.270;4.456;2022-10-18T06:26:51;11.77;;;7.63;;
9496;SDS011;4786;51.270;4.456;2022-10-18T06:29:17;11.27;;;7.77;;
9496;SDS011;4786;51.270;4.456;2022-10-18T06:31:43;11.43;;;8.70;;
9496;SDS011;4786;51.270;4.456;2022-10-18T06:34:09;8.77;;;7.87;;
9496;SDS011;4786;51.270;4.456;2022-10-18T06:36:35;10.63;;;7.57;;
9496;SDS011;4786;51.270;4.456;2022-10-18T06:39:01;9.33;;;7.77;;
9496;SDS011;4786;51.270;4.456;2022-10-18T06:41:27;11.30;;;7.53;;
9496;SDS011;4786;51.270;4.456;2022-10-18T06:43:52;8.37;;;7.57;;
9496;SDS011;4786;51.270;4.456;2022-10-18T06:46:21;11.30;;;7.40;;
9496;SDS011;4786;51.270;4.456;2022-10-18T06:48:47;7.03;;;6.10;;
9496;SDS011;4786;51.270;4.456;2022-10-18T06:51:13;9.30;;;7.30;;
9496;SDS011;4786;51.270;4.456;2022-10-18T06:53:39;13.43;;;7.37;;
9496;SDS011;4786;51.270;4.456;2022-10-18T06:56:07;12.03;;;7.37;;
9496;SDS011;4786;51.270;4.456;2022-10-18T06:58:35;11.70;;;6.50;;
9496;SDS011;4786;51.270;4.456;2022-10-18T07:01:05;10.40;;;6.93;;
9496;SDS011;4786;51.270;4.456;2022-10-18T07:03:40;8.57;;;5.93;;
9496;SDS011;4786;51.270;4.456;2022-10-18T07:06:06;14.40;;;7.07;;
9496;SDS011;4786;51.270;4.456;2022-10-18T07:08:34;13.00;;;6.73;;
9496;SDS011;4786;51.270;4.456;2022-10-18T07:11:02;10.30;;;7.23;;
9496;SDS011;4786;51.270;4.456;2022-10-18T07:13:28;6.67;;;6.07;;
9496;SDS011;4786;51.270;4.456;2022-10-18T07:16:03;7.67;;;6.10;;
9496;SDS011;4786;51.270;4.456;2022-10-18T07:18:30;9.00;;;6.17;;
9496;SDS011;4786;51.270;4.456;2022-10-18T07:21:01;8.53;;;6.33;;
9496;SDS011;4786;51.270;4.456;2022-10-18T07:23:27;6.97;;;6.13;;
9496;SDS011;4786;51.270;4.456;2022-10-18T07:25:53;11.80;;;7.50;;
9496;SDS011;4786;51.270;4.456;2022-10-18T07:28:18;7.23;;;6.60;;
9496;SDS011;4786;51.270;4.456;2022-10-18T07:30:45;10.77;;;7.20;;
9496;SDS011;4786;51.270;4.456;2022-10-18T07:33:10;7.73;;;6.93;;
9496;SDS011;4786;51.270;4.456;2022-10-18T07:35:36;10.97;;;7.73;;
9496;SDS011;4786;51.270;4.456;2022-10-18T07:38:02;8.80;;;7.47;;
9496;SDS011;4786;51.270;4.456;2022-10-18T07:40:28;10.20;;;7.37;;
9496;SDS011;4786;51.270;4.456;2022-10-18T07:42:54;8.30;;;7.40;;
9496;SDS011;4786;51.270;4.456;2022-10-18T07:45:19;13.33;;;8.57;;
9496;SDS011;4786;51.270;4.456;2022-10-18T07:47:45;12.03;;;7.37;;
9496;SDS011;4786;51.270;4.456;2022-10-18T07:50:11;14.53;;;8.17;;
9496;SDS011;4786;51.270;4.456;2022-10-18T07:52:37;12.53;;;7.63;;
9496;SDS011;4786;51.270;4.456;2022-10-18T07:55:03;10.60;;;7.40;;
9496;SDS011;4786;51.270;4.456;2022-10-18T07:57:29;13.37;;;7.60;;
9496;SDS011;4786;51.270;4.456;2022-10-18T07:59:55;17.17;;;7.73;;
9496;SDS011;4786;51.270;4.456;2022-10-18T08:02:22;16.17;;;6.83;;
9496;SDS011;4786;51.270;4.456;2022-10-18T08:04:48;12.43;;;4.87;;
9496;SDS011;4786;51.270;4.456;2022-10-18T08:07:14;12.87;;;5.40;;
9496;SDS011;4786;51.270;4.456;2022-10-18T08:09:40;17.67;;;6.73;;
9496;SDS011;4786;51.270;4.456;2022-10-18T08:12:05;14.27;;;5.03;;
9496;SDS011;4786;51.270;4.456;2022-10-18T08:14:31;10.13;;;4.70;;
9496;SDS011;4786;51.270;4.456;2022-10-18T08:16:57;12.77;;;4.80;;
9496;SDS011;4786;51.270;4.456;2022-10-18T08:19:22;12.47;;;4.63;;
9496;SDS011;4786;51.270;4.456;2022-10-18T08:21:49;13.33;;;4.60;;
9496;SDS011;4786;51.270;4.456;2022-10-18T08:24:14;12.93;;;4.90;;
9496;SDS011;4786;51.270;4.456;2022-10-18T08:26:40;13.45;;;4.47;;
9496;SDS011;4786;51.270;4.456;2022-10-18T08:29:05;14.50;;;4.10;;
9496;SDS011;4786;51.270;4.456;2022-10-18T08:31:31;12.20;;;4.40;;
9496;SDS011;4786;51.270;4.456;2022-10-18T08:33:57;15.57;;;4.60;;
9496;SDS011;4786;51.270;4.456;2022-10-18T08:36:24;13.68;;;4.18;;
9496;SDS011;4786;51.270;4.456;2022-10-18T08:38:49;12.45;;;4.07;;
9496;SDS011;4786;51.270;4.456;2022-10-18T08:41:19;11.75;;;3.67;;
9496;SDS011;4786;51.270;4.456;2022-10-18T08:43:57;12.50;;;3.75;;
9496;SDS011;4786;51.270;4.456;2022-10-18T08:46:47;10.73;;;3.80;;
9496;SDS011;4786;51.270;4.456;2022-10-18T08:51:45;11.05;;;3.63;;
9496;SDS011;4786;51.270;4.456;2022-10-18T08:54:24;10.30;;;3.45;;
9496;SDS011;4786;51.270;4.456;2022-10-18T08:56:58;14.50;;;4.03;;
9496;SDS011;4786;51.270;4.456;2022-10-18T08:59:28;11.77;;;4.23;;
9496;SDS011;4786;51.270;4.456;2022-10-18T09:04:44;12.00;;;3.73;;
9496;SDS011;4786;51.270;4.456;2022-10-18T09:16:02;11.03;;;3.60;;
9496;SDS011;4786;51.270;4.456;2022-10-18T09:20:59;14.93;;;4.20;;
9496;SDS011;4786;51.270;4.456;2022-10-18T09:26:17;14.80;;;4.60;;
9496;SDS011;4786;51.270;4.456;2022-10-18T09:35:11;12.20;;;3.67;;
9496;SDS011;4786;51.270;4.456;2022-10-18T09:37:10;14.20;;;4.03;;
9496;SDS011;4786;51.270;4.456;2022-10-18T09:39:38;10.40;;;3.58;;
9496;SDS011;4786;51.270;4.456;2022-10-18T09:44:51;10.20;;;3.65;;
9496;SDS011;4786;51.270;4.456;2022-10-18T09:47:36;12.13;;;3.80;;
9496;SDS011;4786;51.270;4.456;2022-10-18T09:50:28;12.40;;;4.47;;
9496;SDS011;4786;51.270;4.456;2022-10-18T09:58:37;12.23;;;3.83;;
9496;SDS011;4786;51.270;4.456;2022-10-18T10:01:10;13.50;;;3.80;;
9496;SDS011;4786;51.270;4.456;2022-10-18T10:03:56;11.57;;;3.60;;
9496;SDS011;4786;51.270;4.456;2022-10-18T10:06:31;11.63;;;3.50;;
9496;SDS011;4786;51.270;4.456;2022-10-18T10:09:06;9.98;;;3.90;;
9496;SDS011;4786;51.270;4.456;2022-10-18T10:11:49;10.23;;;3.30;;
9496;SDS011;4786;51.270;4.456;2022-10-18T10:14:22;13.93;;;3.85;;
9496;SDS011;4786;51.270;4.456;2022-10-18T10:19:17;13.43;;;3.65;;
9496;SDS011;4786;51.270;4.456;2022-10-18T10:21:47;10.75;;;3.35;;
9496;SDS011;4786;51.270;4.456;2022-10-18T10:24:39;12.70;;;3.28;;
9496;SDS011;4786;51.270;4.456;2022-10-18T10:27:18;10.70;;;3.35;;
9496;SDS011;4786;51.270;4.456;2022-10-18T10:29:49;8.63;;;3.05;;
9496;SDS011;4786;51.270;4.456;2022-10-18T10:32:20;17.08;;;3.63;;
9496;SDS011;4786;51.270;4.456;2022-10-18T10:34:47;15.88;;;3.97;;
9496;SDS011;4786;51.270;4.456;2022-10-18T10:37:22;10.60;;;3.47;;
9496;SDS011;4786;51.270;4.456;2022-10-18T10:40:13;11.90;;;3.38;;
9496;SDS011;4786;51.270;4.456;2022-10-18T10:43:06;9.68;;;3.33;;
9496;SDS011;4786;51.270;4.456;2022-10-18T10:46:24;13.77;;;3.40;;
9496;SDS011;4786;51.270;4.456;2022-10-18T10:48:25;7.90;;;2.83;;
9496;SDS011;4786;51.270;4.456;2022-10-18T10:51:00;9.75;;;3.47;;
9496;SDS011;4786;51.270;4.456;2022-10-18T10:53:49;9.00;;;3.40;;
9496;SDS011;4786;51.270;4.456;2022-10-18T10:56:23;11.30;;;2.92;;
9496;SDS011;4786;51.270;4.456;2022-10-18T10:58:56;9.40;;;3.20;;
9496;SDS011;4786;51.270;4.456;2022-10-18T11:01:27;10.68;;;3.00;;
9496;SDS011;4786;51.270;4.456;2022-10-18T11:03:58;9.05;;;2.92;;
9496;SDS011;4786;51.270;4.456;2022-10-18T11:06:32;8.73;;;2.85;;
9496;SDS011;4786;51.270;4.456;2022-10-18T11:09:08;10.88;;;3.38;;
9496;SDS011;4786;51.270;4.456;2022-10-18T11:11:44;11.05;;;3.17;;
9496;SDS011;4786;51.270;4.456;2022-10-18T11:14:20;6.38;;;2.30;;
9496;SDS011;4786;51.270;4.456;2022-10-18T11:17:01;7.57;;;2.80;;
9496;SDS011;4786;51.270;4.456;2022-10-18T11:22:25;8.65;;;2.78;;
9496;SDS011;4786;51.270;4.456;2022-10-18T11:24:56;7.75;;;2.65;;
9496;SDS011;4786;51.270;4.456;2022-10-18T11:27:32;8.65;;;2.40;;
9496;SDS011;4786;51.270;4.456;2022-10-18T11:33:10;10.65;;;2.97;;
9496;SDS011;4786;51.270;4.456;2022-10-18T11:38:55;9.15;;;2.88;;
9496;SDS011;4786;51.270;4.456;2022-10-18T11:41:00;5.10;;;2.25;;
9496;SDS011;4786;51.270;4.456;2022-10-18T11:43:37;6.47;;;2.53;;
9496;SDS011;4786;51.270;4.456;2022-10-18T11:51:42;8.73;;;3.63;;
9496;SDS011;4786;51.270;4.456;2022-10-18T12:05:34;11.38;;;3.33;;
9496;SDS011;4786;51.270;4.456;2022-10-18T12:08:10;5.53;;;2.22;;
9496;SDS011;4786;51.270;4.456;2022-10-18T12:10:42;7.70;;;2.55;;
9496;SDS011;4786;51.270;4.456;2022-10-18T12:13:13;9.70;;;2.78;;
9496;SDS011;4786;51.270;4.456;2022-10-18T12:19:16;6.63;;;2.25;;
9496;SDS011;4786;51.270;4.456;2022-10-18T12:21:55;7.22;;;2.47;;
9496;SDS011;4786;51.270;4.456;2022-10-18T12:24:27;9.50;;;2.50;;
9496;SDS011;4786;51.270;4.456;2022-10-18T12:26:59;5.28;;;2.05;;
9496;SDS011;4786;51.270;4.456;2022-10-18T12:29:36;6.15;;;2.20;;
9496;SDS011;4786;51.270;4.456;2022-10-18T12:32:17;7.40;;;2.38;;
9496;SDS011;4786;51.270;4.456;2022-10-18T12:35:03;8.70;;;2.53;;
9496;SDS011;4786;51.270;4.456;2022-10-18T12:40:21;8.05;;;2.45;;
9496;SDS011;4786;51.270;4.456;2022-10-18T12:43:06;9.15;;;2.97;;
9496;SDS011;4786;51.270;4.456;2022-10-18T12:46:07;7.47;;;2.67;;
9496;SDS011;4786;51.270;4.456;2022-10-18T12:51:16;5.22;;;1.95;;
9496;SDS011;4786;51.270;4.456;2022-10-18T12:53:44;9.25;;;2.40;;
9496;SDS011;4786;51.270;4.456;2022-10-18T12:56:33;10.57;;;2.55;;
9496;SDS011;4786;51.270;4.456;2022-10-18T12:59:44;8.65;;;2.40;;
9496;SDS011;4786;51.270;4.456;2022-10-18T13:14:52;7.15;;;2.45;;
9496;SDS011;4786;51.270;4.456;2022-10-18T13:17:33;7.82;;;2.83;;
9496;SDS011;4786;51.270;4.456;2022-10-18T13:20:32;8.40;;;2.40;;
9496;SDS011;4786;51.270;4.456;2022-10-18T13:25:37;8.23;;;2.72;;
9496;SDS011;4786;51.270;4.456;2022-10-18T13:34:29;8.43;;;2.60;;
9496;SDS011;4786;51.270;4.456;2022-10-18T13:39:33;9.18;;;2.75;;
9496;SDS011;4786;51.270;4.456;2022-10-18T13:58:05;8.30;;;2.53;;
9496;SDS011;4786;51.270;4.456;2022-10-18T14:00:45;10.27;;;2.22;;
9496;SDS011;4786;51.270;4.456;2022-10-18T14:06:40;5.40;;;2.05;;
9496;SDS011;4786;51.270;4.456;2022-10-18T14:09:18;9.32;;;2.63;;
9496;SDS011;4786;51.270;4.456;2022-10-18T14:15:13;9.82;;;2.75;;
9496;SDS011;4786;51.270;4.456;2022-10-18T14:17:44;9.55;;;2.33;;
9496;SDS011;4786;51.270;4.456;2022-10-18T14:23:24;9.52;;;2.65;;
9496;SDS011;4786;51.270;4.456;2022-10-18T14:26:07;7.70;;;2.42;;
9496;SDS011;4786;51.270;4.456;2022-10-18T14:28:41;7.78;;;2.47;;
9496;SDS011;4786;51.270;4.456;2022-10-18T14:31:14;6.43;;;2.35;;
9496;SDS011;4786;51.270;4.456;2022-10-18T14:33:45;6.68;;;2.35;;
9496;SDS011;4786;51.270;4.456;2022-10-18T14:38:49;5.97;;;2.08;;
9496;SDS011;4786;51.270;4.456;2022-10-18T14:43:47;7.00;;;2.42;;
9496;SDS011;4786;51.270;4.456;2022-10-18T14:46:18;7.37;;;2.40;;
9496;SDS011;4786;51.270;4.456;2022-10-18T14:49:05;9.15;;;2.60;;
9496;SDS011;4786;51.270;4.456;2022-10-18T14:51:32;7.25;;;2.30;;
9496;SDS011;4786;51.270;4.456;2022-10-18T14:54:00;7.53;;;2.17;;
9496;SDS011;4786;51.270;4.456;2022-10-18T14:56:30;6.05;;;1.92;;
9496;SDS011;4786;51.270;4.456;2022-10-18T14:59:02;6.28;;;1.90;;
9496;SDS011;4786;51.270;4.456;2022-10-18T15:01:34;5.55;;;2.22;;
9496;SDS011;4786;51.270;4.456;2022-10-18T15:04:05;8.20;;;2.22;;
9496;SDS011;4786;51.270;4.456;2022-10-18T15:06:33;5.65;;;2.00;;
9496;SDS011;4786;51.270;4.456;2022-10-18T15:08:59;7.78;;;2.28;;
9496;SDS011;4786;51.270;4.456;2022-10-18T15:11:33;4.13;;;1.70;;
9496;SDS011;4786;51.270;4.456;2022-10-18T15:14:00;7.03;;;1.98;;
9496;SDS011;4786;51.270;4.456;2022-10-18T15:16:31;5.63;;;2.00;;
9496;SDS011;4786;51.270;4.456;2022-10-18T15:19:01;5.43;;;1.95;;
9496;SDS011;4786;51.270;4.456;2022-10-18T15:21:55;5.87;;;2.03;;
9496;SDS011;4786;51.270;4.456;2022-10-18T15:26:51;6.53;;;2.30;;
9496;SDS011;4786;51.270;4.456;2022-10-18T15:29:20;6.07;;;2.05;;
9496;SDS011;4786;51.270;4.456;2022-10-18T15:31:48;3.83;;;1.50;;
9496;SDS011;4786;51.270;4.456;2022-10-18T15:34:20;4.35;;;1.63;;
9496;SDS011;4786;51.270;4.456;2022-10-18T15:36:49;2.97;;;1.63;;
9496;SDS011;4786;51.270;4.456;2022-10-18T15:39:21;4.77;;;1.60;;
9496;SDS011;4786;51.270;4.456;2022-10-18T15:41:51;5.97;;;2.10;;
9496;SDS011;4786;51.270;4.456;2022-10-18T15:46:49;4.13;;;1.73;;
9496;SDS011;4786;51.270;4.456;2022-10-18T15:54:34;5.70;;;2.17;;
9496;SDS011;4786;51.270;4.456;2022-10-18T15:57:07;4.83;;;2.40;;
9496;SDS011;4786;51.270;4.456;2022-10-18T15:59:34;8.50;;;2.47;;
9496;SDS011;4786;51.270;4.456;2022-10-18T16:02:16;7.75;;;2.28;;
9496;SDS011;4786;51.270;4.456;2022-10-18T16:04:42;6.37;;;2.10;;
9496;SDS011;4786;51.270;4.456;2022-10-18T16:07:08;9.13;;;2.60;;
9496;SDS011;4786;51.270;4.456;2022-10-18T16:09:36;5.63;;;2.07;;
9496;SDS011;4786;51.270;4.456;2022-10-18T16:12:02;5.90;;;2.20;;
9496;SDS011;4786;51.270;4.456;2022-10-18T16:14:29;7.03;;;2.60;;
9496;SDS011;4786;51.270;4.456;2022-10-18T16:16:59;6.67;;;2.30;;
9496;SDS011;4786;51.270;4.456;2022-10-18T16:19:27;16.00;;;2.90;;
9496;SDS011;4786;51.270;4.456;2022-10-18T16:21:53;5.20;;;2.30;;
9496;SDS011;4786;51.270;4.456;2022-10-18T16:24:19;6.70;;;2.70;;
9496;SDS011;4786;51.270;4.456;2022-10-18T16:26:45;6.53;;;2.90;;
9496;SDS011;4786;51.270;4.456;2022-10-18T16:29:15;8.57;;;2.77;;
9496;SDS011;4786;51.270;4.456;2022-10-18T16:31:43;8.20;;;2.90;;
9496;SDS011;4786;51.270;4.456;2022-10-18T16:34:10;8.80;;;2.87;;
9496;SDS011;4786;51.270;4.456;2022-10-18T16:36:38;8.00;;;2.57;;
9496;SDS011;4786;51.270;4.456;2022-10-18T16:39:05;8.23;;;2.10;;
9496;SDS011;4786;51.270;4.456;2022-10-18T16:41:35;5.60;;;2.40;;
9496;SDS011;4786;51.270;4.456;2022-10-18T16:44:00;6.20;;;2.20;;
9496;SDS011;4786;51.270;4.456;2022-10-18T16:46:27;7.50;;;2.50;;
9496;SDS011;4786;51.270;4.456;2022-10-18T16:48:55;8.97;;;2.57;;
9496;SDS011;4786;51.270;4.456;2022-10-18T16:51:21;7.73;;;2.40;;
9496;SDS011;4786;51.270;4.456;2022-10-18T16:53:47;4.87;;;2.53;;
9496;SDS011;4786;51.270;4.456;2022-10-18T16:56:14;7.47;;;2.70;;
9496;SDS011;4786;51.270;4.456;2022-10-18T16:58:48;6.50;;;2.63;;
9496;SDS011;4786;51.270;4.456;2022-10-18T17:01:15;11.33;;;2.77;;
9496;SDS011;4786;51.270;4.456;2022-10-18T17:03:42;10.00;;;3.30;;
9496;SDS011;4786;51.270;4.456;2022-10-18T17:06:13;8.00;;;3.20;;
9496;SDS011;4786;51.270;4.456;2022-10-18T17:08:41;8.43;;;2.83;;
9496;SDS011;4786;51.270;4.456;2022-10-18T17:11:08;9.70;;;2.70;;
9496;SDS011;4786;51.270;4.456;2022-10-18T17:13:35;5.10;;;2.27;;
9496;SDS011;4786;51.270;4.456;2022-10-18T17:16:00;8.63;;;2.97;;
9496;SDS011;4786;51.270;4.456;2022-10-18T17:18:28;5.67;;;2.70;;
9496;SDS011;4786;51.270;4.456;2022-10-18T17:20:54;7.17;;;2.60;;
9496;SDS011;4786;51.270;4.456;2022-10-18T17:23:27;6.40;;;2.57;;
9496;SDS011;4786;51.270;4.456;2022-10-18T17:25:53;6.67;;;2.63;;
9496;SDS011;4786;51.270;4.456;2022-10-18T17:28:19;7.53;;;2.90;;
9496;SDS011;4786;51.270;4.456;2022-10-18T17:30:45;9.40;;;3.67;;
9496;SDS011;4786;51.270;4.456;2022-10-18T17:33:11;8.60;;;3.03;;
9496;SDS011;4786;51.270;4.456;2022-10-18T17:35:38;5.43;;;2.90;;
9496;SDS011;4786;51.270;4.456;2022-10-18T17:38:05;10.30;;;3.10;;
9496;SDS011;4786;51.270;4.456;2022-10-18T17:40:32;7.13;;;2.70;;
9496;SDS011;4786;51.270;4.456;2022-10-18T17:42:58;6.10;;;3.10;;
9496;SDS011;4786;51.270;4.456;2022-10-18T17:45:24;8.93;;;3.17;;
9496;SDS011;4786;51.270;4.456;2022-10-18T17:47:50;8.60;;;3.40;;
9496;SDS011;4786;51.270;4.456;2022-10-18T17:50:16;4.90;;;2.93;;
9496;SDS011;4786;51.270;4.456;2022-10-18T17:52:43;7.83;;;3.17;;
9496;SDS011;4786;51.270;4.456;2022-10-18T17:55:11;6.00;;;3.30;;
9496;SDS011;4786;51.270;4.456;2022-10-18T17:57:38;6.77;;;2.90;;
9496;SDS011;4786;51.270;4.456;2022-10-18T18:00:06;7.53;;;3.20;;
9496;SDS011;4786;51.270;4.456;2022-10-18T18:02:34;10.43;;;3.90;;
9496;SDS011;4786;51.270;4.456;2022-10-18T18:05:00;9.30;;;4.10;;
9496;SDS011;4786;51.270;4.456;2022-10-18T18:07:27;6.87;;;3.60;;
9496;SDS011;4786;51.270;4.456;2022-10-18T18:09:52;10.13;;;4.00;;
9496;SDS011;4786;51.270;4.456;2022-10-18T18:12:18;9.43;;;4.40;;